createdAt,value
2023-03-20T00:05:50.634Z,8.26
2023-03-20T00:08:21.011Z,8.31
2023-03-20T00:11:02.649Z,8.33
2023-03-20T00:13:37.576Z,8.57
2023-03-20T00:16:09.383Z,8.43
2023-03-20T00:18:39.177Z,8.27
2023-03-20T00:21:21.562Z,8.42
2023-03-20T00:23:55.763Z,8.43
2023-03-20T00:26:28.962Z,8.52
2023-03-20T00:28:59.634Z,8.79
2023-03-20T00:31:33.978Z,9.25
2023-03-20T00:34:08.065Z,9.32
2023-03-20T00:36:40.045Z,9.14
2023-03-20T00:39:16.789Z,8.84
2023-03-20T00:41:55.526Z,8.79
2023-03-20T00:44:35.595Z,8.64
2023-03-20T00:47:22.860Z,8.84
2023-03-20T00:49:53.498Z,8.72
2023-03-20T00:52:24.964Z,8.73
2023-03-20T00:54:54.860Z,8.52
2023-03-20T00:57:33.322Z,8.38
2023-03-20T01:00:37.875Z,8.34
2023-03-20T01:03:19.943Z,8.38
2023-03-20T01:05:52.778Z,8.23
2023-03-20T01:08:25.170Z,8.42
2023-03-20T01:10:57.636Z,8.34
2023-03-20T01:13:29.604Z,8.13
2023-03-20T01:16:00.044Z,8.20
2023-03-20T01:18:30.057Z,8.21
2023-03-20T01:20:59.649Z,8.42
2023-03-20T01:23:29.141Z,8.31
2023-03-20T01:26:03.380Z,8.26
2023-03-20T01:28:34.812Z,8.24
2023-03-20T01:31:08.442Z,8.27
2023-03-20T01:33:58.164Z,8.25
2023-03-20T01:36:27.907Z,8.38
2023-03-20T01:39:00.689Z,8.36
2023-03-20T01:41:30.637Z,8.46
2023-03-20T01:44:02.078Z,8.46
2023-03-20T01:46:35.539Z,8.47
2023-03-20T01:49:21.973Z,8.46
2023-03-20T01:51:58.101Z,8.48
2023-03-20T01:54:37.868Z,8.50
2023-03-20T01:57:15.171Z,8.44
2023-03-20T02:00:06.562Z,8.41
2023-03-20T02:02:50.534Z,8.39
2023-03-20T02:05:47.091Z,8.57
2023-03-20T02:08:33.925Z,8.64
2023-03-20T02:11:09.650Z,8.68
2023-03-20T02:13:39.731Z,8.68
2023-03-20T02:16:17.666Z,8.70
2023-03-20T02:19:01.157Z,8.75
2023-03-20T02:21:56.222Z,8.76
2023-03-20T02:24:53.209Z,8.76
2023-03-20T02:27:46.294Z,8.77
2023-03-20T02:30:57.421Z,8.78
2023-03-20T02:33:52.180Z,8.83
2023-03-20T02:36:52.399Z,8.49
2023-03-20T02:39:45.221Z,8.62
2023-03-20T02:42:18.462Z,8.41
2023-03-20T02:44:59.415Z,8.46
2023-03-20T02:47:40.373Z,8.59
2023-03-20T02:50:33.119Z,8.56
2023-03-20T02:53:21.774Z,8.43
2023-03-20T02:56:08.089Z,8.26
2023-03-20T02:58:45.657Z,8.47
2023-03-20T03:01:37.009Z,8.53
2023-03-20T03:04:27.477Z,8.53
2023-03-20T03:07:00.071Z,8.44
2023-03-20T03:09:33.635Z,8.46
2023-03-20T03:12:13.119Z,8.45
2023-03-20T03:14:57.812Z,8.46
2023-03-20T03:17:30.288Z,8.47
2023-03-20T03:20:04.082Z,8.52
2023-03-20T03:22:36.207Z,8.52
2023-03-20T03:25:07.149Z,8.47
2023-03-20T03:27:45.169Z,8.41
2023-03-20T03:30:25.869Z,8.25
2023-03-20T03:33:31.126Z,8.07
2023-03-20T03:46:51.113Z,7.97
2023-03-20T03:49:58.186Z,8.23
2023-03-20T03:56:30.399Z,8.36
2023-03-20T04:03:04.378Z,8.54
2023-03-20T04:06:15.255Z,8.56
